createdAt,value
2019-01-03T00:01:10.061Z,-1.45
2019-01-03T00:03:52.103Z,-1.40
2019-01-03T00:06:38.504Z,-1.52
2019-01-03T00:09:27.538Z,-1.58
2019-01-03T00:12:22.752Z,-1.61
2019-01-03T00:15:09.699Z,-1.79
2019-01-03T00:17:56.284Z,-1.73
2019-01-03T00:20:46.996Z,-1.65
2019-01-03T00:23:38.234Z,-1.58
2019-01-03T00:26:26.464Z,-1.66
2019-01-03T00:29:19.921Z,-1.58
2019-01-03T00:32:25.849Z,-1.63
2019-01-03T00:35:22.812Z,-1.60
2019-01-03T00:38:09.058Z,-1.63
2019-01-03T00:40:56.476Z,-1.57
2019-01-03T00:43:43.034Z,-1.52
2019-01-03T00:46:37.306Z,-1.57
2019-01-03T00:49:35.127Z,-1.61
2019-01-03T00:52:34.091Z,-1.72
2019-01-03T00:55:30.856Z,-1.83
2019-01-03T00:58:17.849Z,-1.79
2019-01-03T01:01:04.355Z,-1.78
2019-01-03T01:03:50.909Z,-1.85
2019-01-03T01:06:44.678Z,-2.04
2019-01-03T01:09:42.277Z,-2.06
2019-01-03T01:12:32.527Z,-1.93
2019-01-03T01:15:18.719Z,-1.94
2019-01-03T01:18:09.435Z,-2.09
2019-01-03T01:20:59.020Z,-2.17
2019-01-03T01:23:45.870Z,-2.06
2019-01-03T01:26:30.212Z,-2.00
2019-01-03T01:29:16.548Z,-2.03
2019-01-03T01:31:59.918Z,-1.92
2019-01-03T01:34:48.026Z,-1.93
2019-01-03T01:37:38.966Z,-1.97
2019-01-03T01:40:25.442Z,-2.04
2019-01-03T01:43:11.969Z,-2.15
2019-01-03T01:45:58.508Z,-2.04
2019-01-03T01:48:46.460Z,-2.23
2019-01-03T01:51:46.231Z,-2.28
2019-01-03T01:54:39.567Z,-2.30
2019-01-03T01:57:31.364Z,-2.32
2019-01-03T02:00:23.004Z,-2.29
2019-01-03T02:03:11.211Z,-2.29
2019-01-03T02:06:02.463Z,-2.17
2019-01-03T02:08:48.829Z,-2.34
2019-01-03T02:11:43.038Z,-2.45
2019-01-03T02:14:39.987Z,-2.53
2019-01-03T02:17:28.685Z,-2.36
2019-01-03T02:20:31.850Z,-2.31
2019-01-03T02:23:18.810Z,-2.39
2019-01-03T02:26:09.837Z,-2.42
2019-01-03T02:29:10.930Z,-2.63
2019-01-03T02:31:53.694Z,-2.49
2019-01-03T02:34:40.554Z,-2.31
2019-01-03T02:37:26.612Z,-2.30
2019-01-03T02:40:13.434Z,-2.47
2019-01-03T02:43:00.171Z,-2.64
2019-01-03T02:45:54.071Z,-2.45
2019-01-03T02:48:41.548Z,-2.41
2019-01-03T02:51:27.841Z,-2.40
2019-01-03T02:54:18.541Z,-2.45
2019-01-03T02:57:09.553Z,-2.47
2019-01-03T03:00:12.512Z,-2.40
2019-01-03T03:03:06.468Z,-2.28
2019-01-03T03:05:49.188Z,-2.22
2019-01-03T03:08:45.939Z,-2.18
2019-01-03T03:11:45.739Z,-3.07
2019-01-03T03:14:32.814Z,-2.25
2019-01-03T03:17:17.553Z,-1.99
2019-01-03T03:19:58.970Z,-2.08
2019-01-03T03:23:06.627Z,-2.20
2019-01-03T03:25:57.868Z,-2.21
2019-01-03T03:28:45.785Z,-1.98
2019-01-03T03:31:48.858Z,-1.87
2019-01-03T03:34:43.748Z,-2.14
2019-01-03T03:37:34.228Z,-2.34
2019-01-03T03:40:40.370Z,-2.77
2019-01-03T03:43:31.706Z,-2.54
2019-01-03T03:46:19.607Z,-2.60
2019-01-03T03:49:06.259Z,-2.73
2019-01-03T03:51:52.767Z,-2.32
2019-01-03T03:54:43.840Z,-2.25
2019-01-03T03:57:35.444Z,-2.32
2019-01-03T04:00:23.018Z,-2.23
2019-01-03T04:03:14.314Z,-2.14
2019-01-03T04:06:01.103Z,-2.02
2019-01-03T04:08:59.669Z,-2.21
2019-01-03T04:11:56.558Z,-2.22
2019-01-03T04:14:45.265Z,-2.11
2019-01-03T04:17:32.057Z,-2.08
2019-01-03T04:20:27.563Z,-2.18
2019-01-03T04:23:18.610Z,-2.07
2019-01-03T04:26:19.794Z,-2.11
2019-01-03T04:29:02.930Z,-2.53
2019-01-03T04:31:53.888Z,-2.38
2019-01-03T04:34:50.405Z,-2.11
2019-01-03T04:37:37.170Z,-2.31
2019-01-03T04:40:25.848Z,-2.18
2019-01-03T04:43:26.487Z,-2.02
2019-01-03T04:46:20.706Z,-2.85
2019-01-03T04:49:05.970Z,-2.47
2019-01-03T04:51:52.860Z,-2.66
2019-01-03T04:54:39.841Z,-2.26
2019-01-03T04:57:26.325Z,-2.17
2019-01-03T05:00:12.915Z,-2.09
2019-01-03T05:03:13.279Z,-1.95
2019-01-03T05:06:00.034Z,-1.77
2019-01-03T05:09:02.971Z,-1.92
2019-01-03T05:12:01.376Z,-2.42
2019-01-03T05:14:42.688Z,-2.12
2019-01-03T05:17:44.320Z,-2.15
2019-01-03T05:20:23.910Z,-1.95
2019-01-03T05:23:13.231Z,-2.56
2019-01-03T05:25:59.626Z,-2.40
2019-01-03T05:28:56.723Z,-2.18
2019-01-03T05:31:42.984Z,-2.04
2019-01-03T05:34:29.514Z,-2.13
2019-01-03T05:37:22.700Z,-1.97
2019-01-03T05:40:32.477Z,-2.34
2019-01-03T05:43:35.791Z,-2.69
2019-01-03T05:46:24.598Z,-2.40
2019-01-03T05:49:18.415Z,-2.59
2019-01-03T05:52:05.176Z,-2.60
2019-01-03T05:55:07.600Z,-2.50
2019-01-03T05:57:54.263Z,-2.47
2019-01-03T06:00:58.340Z,-2.25
2019-01-03T06:03:44.487Z,-2.56
2019-01-03T06:06:45.994Z,-2.21
2019-01-03T06:09:37.189Z,-2.26
2019-01-03T06:12:32.615Z,-2.12
2019-01-03T06:15:29.871Z,-2.09
2019-01-03T06:18:32.986Z,-1.97
2019-01-03T06:21:19.394Z,-1.89
2019-01-03T06:24:03.136Z,-1.92
2019-01-03T06:26:59.982Z,-1.79
2019-01-03T06:30:04.671Z,-1.93
2019-01-03T06:33:01.896Z,-1.97
2019-01-03T06:35:50.003Z,-1.93
2019-01-03T06:38:29.237Z,-1.69
2019-01-03T06:41:32.240Z,-1.58
2019-01-03T06:44:15.490Z,-1.55
2019-01-03T06:47:07.325Z,-1.46
2019-01-03T06:50:00.872Z,-1.34
2019-01-03T06:52:48.570Z,-1.29
2019-01-03T06:55:35.227Z,-1.26
2019-01-03T06:58:21.755Z,-1.23
2019-01-03T07:01:12.716Z,-1.16
2019-01-03T07:03:57.906Z,-1.10
2019-01-03T07:07:03.208Z,-1.03
2019-01-03T07:10:09.618Z,-0.97
2019-01-03T07:12:56.092Z,-1.09
2019-01-03T07:15:50.190Z,-1.24
2019-01-03T07:18:36.488Z,-1.47
2019-01-03T07:21:27.303Z,-1.65
2019-01-03T07:24:14.208Z,-1.34
2019-01-03T07:27:00.578Z,-1.73
2019-01-03T07:29:46.770Z,-1.63
2019-01-03T07:32:33.141Z,-1.45
2019-01-03T07:35:24.315Z,-1.55
2019-01-03T07:38:21.351Z,-1.56
2019-01-03T07:41:07.726Z,-1.36
2019-01-03T07:43:49.509Z,-1.20
2019-01-03T07:46:30.283Z,-1.17
2019-01-03T07:49:30.303Z,-1.07
2019-01-03T07:52:18.385Z,-0.86
2019-01-03T07:55:12.660Z,-1.24
2019-01-03T07:57:59.355Z,-1.13
2019-01-03T08:00:49.069Z,-0.77
2019-01-03T08:03:44.325Z,-0.48
2019-01-03T08:06:23.121Z,-0.32
2019-01-03T08:09:12.827Z,-0.35
2019-01-03T08:11:56.424Z,-0.65
2019-01-03T08:14:57.684Z,-0.61
2019-01-03T08:17:45.259Z,-0.69
2019-01-03T08:20:32.667Z,-1.05
2019-01-03T08:23:21.776Z,-1.13
2019-01-03T08:26:07.993Z,-1.13
2019-01-03T08:28:56.981Z,-0.97
2019-01-03T08:32:05.346Z,-0.52
2019-01-03T08:34:59.550Z,-0.69
2019-01-03T08:37:47.556Z,-0.81
2019-01-03T08:40:48.455Z,-0.97
2019-01-03T08:43:34.712Z,-0.99
2019-01-03T08:46:23.455Z,-1.00
2019-01-03T08:49:20.822Z,-0.47
2019-01-03T08:52:09.754Z,-0.12
2019-01-03T08:54:56.644Z,-0.71
2019-01-03T08:57:43.445Z,-0.28
2019-01-03T09:00:45.111Z,-0.13
2019-01-03T09:03:59.384Z,-0.46
2019-01-03T09:06:45.540Z,-0.34
2019-01-03T09:09:43.891Z,-0.32
2019-01-03T09:12:30.487Z,-0.08
2019-01-03T09:15:11.763Z,-0.15
2019-01-03T09:18:02.827Z,0.09
2019-01-03T09:20:49.140Z,-0.21
2019-01-03T09:23:33.308Z,-0.01
2019-01-03T09:26:20.069Z,-0.12
2019-01-03T09:29:03.614Z,0.41
2019-01-03T09:31:49.995Z,0.10
2019-01-03T09:34:37.287Z,-0.08
2019-01-03T09:37:26.972Z,-0.19
2019-01-03T09:40:13.961Z,0.78
2019-01-03T09:43:00.331Z,0.66
2019-01-03T09:45:30.272Z,0.44
2019-01-03T09:48:00.779Z,0.38
2019-01-03T09:50:31.747Z,0.56
2019-01-03T09:53:01.382Z,0.34
2019-01-03T09:55:30.802Z,0.66
2019-01-03T09:57:59.988Z,0.95
2019-01-03T10:00:28.900Z,0.57
2019-01-03T10:02:59.246Z,1.15
2019-01-03T10:05:30.267Z,0.68
2019-01-03T10:07:59.255Z,0.65
2019-01-03T10:10:29.318Z,0.51
2019-01-03T10:12:58.520Z,0.66
2019-01-03T10:15:27.889Z,0.69
2019-01-03T10:17:58.965Z,0.81
2019-01-03T10:20:27.898Z,0.91
2019-01-03T10:22:57.090Z,0.85
2019-01-03T10:25:28.273Z,1.38
2019-01-03T10:27:57.239Z,1.42
2019-01-03T10:30:26.191Z,1.47
2019-01-03T10:32:58.374Z,1.38
2019-01-03T10:35:27.035Z,0.97
2019-01-03T10:37:56.238Z,1.22
2019-01-03T10:40:25.187Z,1.21
2019-01-03T10:42:56.050Z,1.40
2019-01-03T10:45:25.410Z,1.26
2019-01-03T10:47:54.389Z,1.84
2019-01-03T10:50:23.325Z,2.24
2019-01-03T10:52:52.313Z,2.46
2019-01-03T10:55:21.248Z,1.55
2019-01-03T10:57:51.893Z,1.34
2019-01-03T11:00:21.134Z,1.36
2019-01-03T11:02:50.386Z,1.67
2019-01-03T11:05:22.697Z,1.47
2019-01-03T11:07:51.632Z,1.50
2019-01-03T11:10:20.770Z,1.29
2019-01-03T11:12:51.647Z,1.57
2019-01-03T11:15:24.009Z,1.97
2019-01-03T11:17:54.067Z,1.95
2019-01-03T11:20:24.140Z,1.95
2019-01-03T11:22:56.910Z,1.87
2019-01-03T11:25:26.324Z,2.11
2019-01-03T11:27:57.798Z,2.17
2019-01-03T11:30:28.088Z,1.90
2019-01-03T11:32:58.391Z,1.56
2019-01-03T11:35:27.877Z,1.68
2019-01-03T11:37:56.833Z,1.95
2019-01-03T11:40:25.837Z,1.62
2019-01-03T11:42:54.729Z,1.69
2019-01-03T11:45:24.404Z,1.83
2019-01-03T11:47:54.325Z,2.34
2019-01-03T11:50:26.248Z,2.34
2019-01-03T11:52:57.534Z,2.33
2019-01-03T11:55:26.500Z,2.29
2019-01-03T11:57:56.404Z,2.33
2019-01-03T12:00:26.402Z,2.23
2019-01-03T12:02:55.351Z,1.98
2019-01-03T12:05:24.230Z,2.04
2019-01-03T12:07:53.206Z,2.06
2019-01-03T12:10:26.725Z,2.10
2019-01-03T12:12:58.712Z,2.58
2019-01-03T12:15:30.505Z,2.87
2019-01-03T12:17:59.429Z,2.63
2019-01-03T12:20:28.665Z,2.99
2019-01-03T12:22:57.621Z,2.73
2019-01-03T12:25:26.910Z,2.22
2019-01-03T12:27:56.102Z,2.81
2019-01-03T12:30:26.082Z,3.24
2019-01-03T12:32:56.442Z,3.09
2019-01-03T12:35:28.189Z,3.53
2019-01-03T12:37:57.108Z,3.51
2019-01-03T12:40:26.515Z,3.61
2019-01-03T12:42:55.443Z,3.32
2019-01-03T12:45:24.571Z,3.46
2019-01-03T12:47:53.732Z,3.81
2019-01-03T12:50:23.831Z,3.86
2019-01-03T12:52:52.965Z,3.32
2019-01-03T12:55:22.367Z,3.25
2019-01-03T12:57:52.079Z,3.44
2019-01-03T13:00:21.306Z,3.04
2019-01-03T13:02:50.533Z,3.00
2019-01-03T13:05:19.513Z,3.29
2019-01-03T13:07:48.494Z,3.17
2019-01-03T13:10:17.896Z,3.21
2019-01-03T13:12:47.095Z,3.27
2019-01-03T13:15:16.417Z,3.24
2019-01-03T13:17:47.421Z,3.75
2019-01-03T13:20:18.805Z,3.98
2019-01-03T13:22:49.060Z,3.97
2019-01-03T13:25:19.740Z,3.64
2019-01-03T13:27:48.690Z,3.69
2019-01-03T13:30:17.882Z,3.89
2019-01-03T13:32:47.384Z,3.42
2019-01-03T13:35:16.329Z,3.54
2019-01-03T13:37:48.430Z,3.93
2019-01-03T13:40:19.990Z,3.78
2019-01-03T13:42:50.808Z,3.72
2019-01-03T13:45:21.366Z,3.60
2019-01-03T13:47:52.190Z,3.66
2019-01-03T13:50:21.868Z,3.53
2019-01-03T13:52:53.126Z,3.67
2019-01-03T13:55:24.140Z,3.54
2019-01-03T13:57:56.412Z,3.59
2019-01-03T14:00:25.320Z,3.68
2019-01-03T14:02:55.491Z,3.62
2019-01-03T14:05:24.702Z,3.56
2019-01-03T14:07:54.339Z,3.63
2019-01-03T14:10:31.086Z,3.74
2019-01-03T14:13:01.379Z,3.72
2019-01-03T14:15:31.112Z,3.62
2019-01-03T14:18:03.330Z,3.73
2019-01-03T14:20:32.505Z,3.59
2019-01-03T14:23:01.801Z,3.62
2019-01-03T14:25:30.754Z,3.54
2019-01-03T14:28:00.720Z,3.60
2019-01-03T14:30:29.815Z,3.76
2019-01-03T14:32:59.246Z,3.62
2019-01-03T14:35:29.733Z,3.63
2019-01-03T14:38:00.970Z,3.75
2019-01-03T14:40:29.912Z,3.72
2019-01-03T14:43:03.595Z,3.70
2019-01-03T14:45:32.537Z,3.76
2019-01-03T14:48:16.292Z,3.88
2019-01-03T14:50:47.782Z,3.74
2019-01-03T14:53:16.680Z,3.86
2019-01-03T14:55:46.198Z,3.75
2019-01-03T14:58:16.572Z,3.63
2019-01-03T15:00:47.433Z,3.68
2019-01-03T15:03:19.514Z,3.61
2019-01-03T15:05:49.832Z,3.63
2019-01-03T15:08:19.066Z,3.57
2019-01-03T15:10:48.199Z,3.68
2019-01-03T15:13:18.445Z,3.61
2019-01-03T15:15:50.229Z,3.77
2019-01-03T15:18:19.414Z,3.82
2019-01-03T15:20:54.169Z,3.78
2019-01-03T15:23:28.861Z,3.83
2019-01-03T15:25:58.374Z,3.82
2019-01-03T15:28:28.517Z,3.64
2019-01-03T15:30:58.874Z,3.50
2019-01-03T15:33:28.962Z,3.53
2019-01-03T15:35:57.876Z,3.64
2019-01-03T15:38:27.143Z,3.72
2019-01-03T15:40:56.120Z,3.81
2019-01-03T15:43:25.092Z,3.80
2019-01-03T15:45:54.025Z,3.76
2019-01-03T15:48:23.224Z,3.65
2019-01-03T15:51:00.602Z,3.68
2019-01-03T15:53:30.532Z,3.58
2019-01-03T15:55:59.746Z,3.39
2019-01-03T15:58:29.964Z,3.21
2019-01-03T16:01:00.517Z,3.09
2019-01-03T16:03:30.397Z,3.26
2019-01-03T16:06:01.976Z,3.32
2019-01-03T16:08:30.933Z,3.17
2019-01-03T16:11:03.793Z,3.17
2019-01-03T16:13:32.675Z,3.27
2019-01-03T16:16:01.914Z,3.31
2019-01-03T16:18:34.941Z,3.25
2019-01-03T16:23:54.600Z,3.31
2019-01-03T16:26:25.817Z,3.19
2019-01-03T16:28:55.038Z,3.21
2019-01-03T16:31:35.751Z,3.16
2019-01-03T16:34:16.938Z,3.21
2019-01-03T16:37:02.301Z,3.20
2019-01-03T16:39:46.712Z,3.24
2019-01-03T16:42:18.471Z,2.95
2019-01-03T16:44:47.444Z,2.86
2019-01-03T16:47:16.619Z,2.84
2019-01-03T16:49:51.164Z,2.91
2019-01-03T16:52:29.050Z,2.74
2019-01-03T16:55:00.675Z,2.88
2019-01-03T16:57:31.322Z,2.77
2019-01-03T17:00:01.781Z,2.69
2019-01-03T17:02:33.621Z,2.57
2019-01-03T17:05:03.268Z,2.46
2019-01-03T17:07:39.026Z,2.60
2019-01-03T17:10:11.533Z,2.70
2019-01-03T17:12:43.121Z,2.84
2019-01-03T17:15:13.088Z,2.97
2019-01-03T17:17:42.283Z,2.91
2019-01-03T17:20:11.788Z,2.89
2019-01-03T17:22:40.754Z,3.04
2019-01-03T17:25:12.081Z,3.18
2019-01-03T17:27:41.886Z,3.18
2019-01-03T17:30:12.265Z,3.25
2019-01-03T17:32:41.241Z,3.09
2019-01-03T17:35:12.327Z,3.07
2019-01-03T17:37:43.328Z,3.11
2019-01-03T17:40:14.080Z,2.89
2019-01-03T17:42:46.490Z,2.85
2019-01-03T17:45:16.786Z,2.88
2019-01-03T17:47:46.801Z,2.87
2019-01-03T17:50:15.962Z,2.92
2019-01-03T17:52:45.176Z,2.83
2019-01-03T17:55:16.460Z,2.71
2019-01-03T17:57:47.049Z,2.68
2019-01-03T18:00:21.414Z,2.46
2019-01-03T18:02:52.642Z,2.56
2019-01-03T18:05:22.328Z,2.52
2019-01-03T18:07:55.047Z,2.32
2019-01-03T18:10:25.838Z,2.42
2019-01-03T18:12:55.295Z,2.63
2019-01-03T18:15:24.443Z,2.54
2019-01-03T18:17:56.733Z,2.70
2019-01-03T18:20:26.700Z,2.67
2019-01-03T18:23:00.746Z,2.81
2019-01-03T18:25:29.683Z,2.94
2019-01-03T18:28:02.020Z,2.69
2019-01-03T18:30:30.946Z,2.69
2019-01-03T18:33:00.136Z,2.53
2019-01-03T18:35:31.144Z,2.72
2019-01-03T18:38:00.080Z,2.71
2019-01-03T18:40:29.001Z,2.83
2019-01-03T18:43:09.786Z,2.85
2019-01-03T18:45:41.737Z,3.06
2019-01-03T18:48:15.346Z,3.04
2019-01-03T18:50:44.492Z,2.98
2019-01-03T18:53:17.667Z,2.98
2019-01-03T18:55:47.826Z,2.81
2019-01-03T18:58:17.093Z,2.92
2019-01-03T19:00:46.116Z,2.79
2019-01-03T19:03:16.682Z,2.79
2019-01-03T19:05:46.678Z,2.80
2019-01-03T19:08:15.823Z,2.87
2019-01-03T19:10:45.297Z,2.98
2019-01-03T19:13:14.217Z,3.19
2019-01-03T19:15:43.160Z,2.92
2019-01-03T19:18:12.545Z,3.13
2019-01-03T19:20:42.223Z,3.10
2019-01-03T19:23:12.309Z,3.25
2019-01-03T19:25:41.323Z,3.16
2019-01-03T19:28:10.582Z,3.08
2019-01-03T19:30:39.734Z,3.26
2019-01-03T19:33:10.773Z,3.20
2019-01-03T19:35:40.799Z,3.08
2019-01-03T19:38:09.927Z,3.11
2019-01-03T19:40:42.424Z,2.97
2019-01-03T19:43:14.296Z,2.86
2019-01-03T19:45:45.422Z,2.86
2019-01-03T19:48:14.528Z,2.80
2019-01-03T19:50:44.852Z,2.85
2019-01-03T19:53:14.845Z,2.79
2019-01-03T19:55:43.817Z,3.05
2019-01-03T19:58:12.747Z,2.99
2019-01-03T20:00:41.722Z,2.91
2019-01-03T20:03:17.244Z,2.89
2019-01-03T20:05:47.218Z,2.91
2019-01-03T20:08:16.151Z,3.04
2019-01-03T20:10:45.642Z,3.12
2019-01-03T20:13:15.061Z,3.11
2019-01-03T20:15:45.843Z,3.11
2019-01-03T20:18:15.965Z,3.08
2019-01-03T20:20:45.844Z,3.05
2019-01-03T20:23:15.796Z,3.12
2019-01-03T20:25:49.425Z,3.05
2019-01-03T20:28:19.926Z,3.02
2019-01-03T20:30:50.788Z,2.98
2019-01-03T20:33:21.758Z,2.98
2019-01-03T20:35:52.646Z,3.05
2019-01-03T20:38:21.595Z,3.08
2019-01-03T20:40:53.776Z,3.26
2019-01-03T20:43:22.696Z,3.17
2019-01-03T20:45:52.762Z,3.05
2019-01-03T20:48:23.375Z,3.12
2019-01-03T20:50:53.335Z,3.24
2019-01-03T20:53:22.308Z,3.21
2019-01-03T20:55:51.529Z,3.27
2019-01-03T20:58:20.487Z,3.27
2019-01-03T21:00:50.557Z,3.25
2019-01-03T21:03:23.142Z,3.16
2019-01-03T21:05:52.095Z,3.09
2019-01-03T21:08:21.835Z,2.54
2019-01-03T21:10:53.300Z,2.63
2019-01-03T21:13:22.851Z,2.77
2019-01-03T21:15:52.546Z,2.47
2019-01-03T21:18:22.597Z,2.63
2019-01-03T21:20:55.331Z,2.81
2019-01-03T21:23:24.386Z,2.83
2019-01-03T21:25:54.831Z,2.76
2019-01-03T21:28:23.779Z,2.74
2019-01-03T21:30:56.071Z,2.78
2019-01-03T21:33:28.559Z,2.85
2019-01-03T21:35:58.490Z,2.69
2019-01-03T21:38:27.370Z,2.73
2019-01-03T21:40:57.557Z,2.33
2019-01-03T21:43:26.795Z,2.37
2019-01-03T21:45:56.845Z,2.25
2019-01-03T21:48:26.660Z,2.42
2019-01-03T21:50:55.633Z,2.37
2019-01-03T21:53:28.518Z,2.51
2019-01-03T21:55:58.740Z,2.59
2019-01-03T21:58:29.317Z,2.66
2019-01-03T22:01:09.928Z,2.67
2019-01-03T22:03:39.813Z,2.65
2019-01-03T22:06:08.692Z,2.70
2019-01-03T22:08:37.717Z,2.61
2019-01-03T22:11:09.255Z,2.54
2019-01-03T22:13:41.515Z,2.44
2019-01-03T22:16:12.729Z,2.32
2019-01-03T22:18:41.674Z,2.47
2019-01-03T22:21:12.272Z,2.34
2019-01-03T22:23:41.360Z,2.23
2019-01-03T22:26:11.569Z,2.49
2019-01-03T22:28:40.452Z,2.39
2019-01-03T22:31:10.172Z,2.32
2019-01-03T22:33:39.358Z,2.34
2019-01-03T22:36:08.973Z,2.39
2019-01-03T22:38:38.702Z,2.34
2019-01-03T22:41:07.628Z,2.37
2019-01-03T22:43:39.428Z,2.13
2019-01-03T22:46:08.618Z,2.05
2019-01-03T22:48:40.914Z,2.18
2019-01-03T22:51:13.634Z,2.22
2019-01-03T22:53:43.349Z,2.25
2019-01-03T22:56:12.946Z,2.28
2019-01-03T22:58:41.873Z,2.19
2019-01-03T23:01:12.620Z,2.37
2019-01-03T23:03:41.545Z,2.29
2019-01-03T23:06:10.492Z,2.32
2019-01-03T23:08:39.461Z,2.24
2019-01-03T23:11:11.211Z,2.15
2019-01-03T23:13:40.536Z,2.05
2019-01-03T23:16:09.778Z,2.13
2019-01-03T23:18:39.837Z,2.27
2019-01-03T23:21:10.166Z,2.38
2019-01-03T23:23:39.123Z,2.55
2019-01-03T23:26:08.043Z,2.49
2019-01-03T23:28:38.081Z,2.59
2019-01-03T23:31:09.266Z,2.62
2019-01-03T23:33:37.992Z,2.66
2019-01-03T23:36:08.012Z,2.55
2019-01-03T23:38:36.957Z,2.43
2019-01-03T23:41:07.923Z,2.56
2019-01-03T23:43:36.894Z,2.48
2019-01-03T23:46:05.863Z,2.63
2019-01-03T23:48:36.642Z,2.61
2019-01-03T23:51:05.857Z,2.70
2019-01-03T23:53:36.406Z,2.63
2019-01-03T23:56:05.214Z,2.57
2019-01-03T23:58:35.502Z,2.62
